Ana Sayfa
METAR-TAF:

METAR-TAF

Havaalanları :

Carlsbad, New Mexico, Amerika Birleşik Devletleri

Enlem: 32-20-15N, Boylam: 104-15-48W, yükseklik: 1004 m

Güncel hava durumu gözlemi

Rapor saat 10:53 UTC de 1 saat ve 5 dakika önce yapıldı.
Rüzgar güneydoğudan 3 kt
Sıcaklık 24°C
Nem 54%
Basınç 1011 hPa
Görüş mesafesi: 16.1 km
Açık gökyüzü

METAR: KCNM 161053Z AUTO 13003KT 10SM CLR 24/14 A2985 RMK AO2 SLP040 T02390139

Saat: 05:58 (11:58 UTC)

Tahmin

Rapor saat 11:20 UTC de 38 dakika önce yapıldı.
Ayın 16'si saat 12 UTC'den ayın 17'si saat 12 UTC'ye kadar geçerli Tahmin
Rüzgar güneydoğudan 6 kt
Görüş mesafesi: 10 km
Açık gökyüzü
Ayın 16'si saat 1900 UTC'den
Rüzgar güneydan 14 kt ve 20 kt'a kadar ani rüzgarlar
Görüş mesafesi: 10 km
11000 ft yükseklikte parçalı bulutlu
Ayın 17'si saat 0200 UTC'den
Rüzgar güney/güneydoğudan 14 kt
Görüş mesafesi: 10 km
Açık gökyüzü

TAF: KCNM 161120Z 1612/1712 14006KT P6SM SKC FM161900 18014G20KT P6SM SCT110 FM170200 16014KT P6SM SKC

4.000'den fazla havaalanı için hava durumu gözlemleri ve tahminleri (METAR ve TAF raporları).

Kullanılabilir istasyonlar harita üzerinde sarı ve kırmızı noktalarla gösterilir.

İstasyonun adını görmek için fareyi noktanın üzerinde gezdirin.

Sonrasında hava gözlem ve tahminlerini görmek için tıklayın.

Haritayı değiştirmek için: yaklaştırmak için siyah artı işaretli yeşil düğmeye ve uzaklaştırmak için de eksi işaretli düğmeye hızla tıklayın; bitişik haritalar için yeşil okları kullanın.


METAR-TAF: